الصفحة الرئيسية
METAR-TAF:

METAR-TAF

مطار :

أجاكسيو, فرنسا

دائرة عرض: 41-55N, خط طول: 008-48E, ارتفاع: 6 متر

مراقبة الطقس الحالي

تاريخ ووقت الإصدار 25 دقيقة قبل الساعة 02:30UTC
ريح 8 عقدة من الشمال/الشمال الشرقي
درجة الحرارة 18°درجة مئوية
الرطوبة 68%
ضغط 1014 hPa
الرؤية 10 كم أو أكثر
الغيوم لا تقل 1500 م ولا وجود لمزنة ركامية السحاب الأسود

METAR: LFKJ 040230Z AUTO 03008KT CAVOK 18/12 Q1014 NOSIG

زمن: 04:55 (02:55 UTC)

توقعات

تاريخ ووقت الإصدار 55 دقيقة قبل الساعة 02:00UTC
التوقعات صالحة من04 الساعة 03 UTC إلى 05 الساعة 03 UTC
ريح 6 عقدة من الشمال الشرقي
الرؤية 10 كم أو أكثر
الغيوم لا تقل 1500 م ولا وجود لمزنة ركامية السحاب الأسود
أصبح
من 04 الساعة 08 UTC إلى 04 الساعة 09 UTC
ريح 10 عقدة من الغرب
مؤقت
من 04 الساعة 08 UTC إلى 04 الساعة 15 UTC
ريح 15 عقدة من الشمال الغربي تتزايد حتى 25 عقدة
أصبح
من 04 الساعة 18 UTC إلى 04 الساعة 20 UTC
ريح 6 عقدة من الشمال الشرقي

TAF: LFKJ 040200Z 0403/0503 05006KT CAVOK BECMG 0408/0409 28010KT TEMPO 0408/0415 31015G25KT BECMG 0418/0420 05006KT

أرصاد الطقس والتوقعات من أكثر من 4000 مطار (تقارير الطقس للمطار METAR والتنبؤ بالطقس بالمطارTAF).

المحطات المتاحة هي النقط الصفراء والحمراء على الخريطة.

حرك المؤشر فوق النقطة لمعرفة اسم المحطة.

ثم انقر لمعرفة أرصاد وتوقعات الطقس.

لتغيير الخارطة: اضغط على الأزرار الخضراء مع رمز الصليب الأسود للتكبير. على الزر الأخضر مع شرطة للتصغير، أو على الأسهم الخضراء للخرائط المجاورة.


METAR-TAF: